Time;durP1;ratioP1;P1;durP2;ratioP2;P2;SDS_P1;SDS_P2;PMS_P1;PMS_P2;Temp;Humidity;BMP_temperature;BMP_pressure;BME280_temperature;BME280_humidity;BME280_pressure;Samples;Min_cycle;Max_cycle;Signal;HPM_P1;HPM_P2
2023/05/30 00:02:45;;;;;;;1.63;0.55;;;;;;;12.14;56.30;101018.91;10467487;28;20029;-81
2023/05/30 00:07:48;;;;;;;1.30;0.55;;;;;;;12.13;56.87;101018.09;10476589;28;20037;-82
2023/05/30 00:12:50;;;;;;;2.22;0.50;;;;;;;12.21;56.62;101016.69;10436897;28;20045;-80
2023/05/30 00:17:52;;;;;;;1.70;0.60;;;;;;;12.08;56.53;101012.63;10446600;28;20033;-80
2023/05/30 00:22:57;;;;;;;2.72;0.60;;;;;;;12.10;56.54;101007.66;10452439;28;20038;-82
2023/05/30 00:28:00;;;;;;;0.40;0.40;;;;;;;11.77;57.37;101020.94;10428637;28;20029;-82
2023/05/30 00:33:02;;;;;;;0.70;0.50;;;;;;;11.96;56.87;101003.88;10446026;28;20046;-81
2023/05/30 00:38:05;;;;;;;1.10;0.40;;;;;;;12.19;56.61;101003.22;10431263;28;20040;-82
2023/05/30 00:43:07;;;;;;;2.42;0.50;;;;;;;12.01;56.95;101004.69;10432957;28;20495;-81
2023/05/30 00:48:09;;;;;;;1.20;0.52;;;;;;;12.11;56.59;101003.81;10407695;28;20029;-80
2023/05/30 00:53:15;;;;;;;3.03;0.40;;;;;;;12.24;56.26;101011.44;10406665;28;20052;-80
2023/05/30 00:58:17;;;;;;;1.60;0.40;;;;;;;12.05;56.65;101013.19;10431684;28;20041;-81
2023/05/30 01:03:24;;;;;;;2.25;0.60;;;;;;;12.10;57.33;101010.41;10426336;28;20481;-83
2023/05/30 01:08:32;;;;;;;1.55;0.38;;;;;;;12.03;57.15;101009.91;10413985;28;20029;-82
2023/05/30 01:14:09;;;;;;;0.60;0.30;;;;;;;12.00;56.63;101007.72;10448792;28;20044;-82
2023/05/30 01:19:14;;;;;;;6.70;0.65;;;;;;;12.10;56.09;101013.16;10443071;28;20038;-83
2023/05/30 01:24:31;;;;;;;1.02;0.40;;;;;;;11.93;55.55;101005.25;10431680;28;20042;-82
2023/05/30 01:29:35;;;;;;;2.43;0.43;;;;;;;11.78;55.46;101008.03;10403746;28;20041;-80
2023/05/30 01:34:38;;;;;;;3.72;0.75;;;;;;;11.89;54.69;101004.19;10393431;28;20050;-80
2023/05/30 01:39:40;;;;;;;0.70;0.45;;;;;;;11.98;53.83;101004.44;10406693;28;20037;-79
2023/05/30 01:45:15;;;;;;;2.97;0.77;;;;;;;12.15;53.84;101001.31;10370783;28;20041;-81
2023/05/30 01:50:20;;;;;;;2.20;0.50;;;;;;;11.82;53.07;101002.84;10405314;28;20034;-81
2023/05/30 01:55:25;;;;;;;1.90;0.50;;;;;;;11.73;52.97;101003.38;10405105;28;20049;-82
2023/05/30 02:00:28;;;;;;;1.40;0.55;;;;;;;11.93;52.11;100998.94;10387880;28;20066;-81
2023/05/30 02:05:30;;;;;;;0.30;0.30;;;;;;;11.88;51.66;100993.47;10426698;28;20042;-82
2023/05/30 02:10:32;;;;;;;2.85;0.40;;;;;;;11.63;53.02;101000.69;10389011;28;20117;-82
2023/05/30 02:15:34;;;;;;;1.63;0.50;;;;;;;11.79;51.94;101006.94;10412083;28;20037;-80
2023/05/30 02:20:36;;;;;;;1.48;0.50;;;;;;;11.62;52.82;101010.00;10408978;28;20393;-80
2023/05/30 02:25:39;;;;;;;1.02;0.30;;;;;;;11.73;52.26;101013.53;10404887;28;20037;-81
2023/05/30 02:30:42;;;;;;;1.00;0.40;;;;;;;11.74;52.71;101013.25;10418716;28;20060;-79
2023/05/30 02:35:45;;;;;;;1.52;0.50;;;;;;;11.88;52.56;101019.03;10413280;28;20033;-83
2023/05/30 02:40:48;;;;;;;0.88;0.50;;;;;;;11.91;52.47;101025.88;10412279;28;20045;-81
2023/05/30 02:45:51;;;;;;;0.88;0.43;;;;;;;11.98;52.41;101005.25;10443674;28;20033;-81
2023/05/30 02:50:55;;;;;;;0.52;0.52;;;;;;;12.13;52.96;101004.34;10424761;28;20041;-81
2023/05/30 02:55:59;;;;;;;0.95;0.47;;;;;;;11.96;52.80;101003.88;10433788;28;20033;-82
2023/05/30 03:01:05;;;;;;;1.27;0.50;;;;;;;11.76;53.96;101016.56;10444246;28;20045;-79
2023/05/30 03:06:08;;;;;;;1.33;0.43;;;;;;;11.81;54.48;101018.53;10439191;28;20041;-81
2023/05/30 03:11:17;;;;;;;4.40;0.50;;;;;;;11.65;55.29;101017.72;10433173;28;20045;-80
2023/05/30 03:16:20;;;;;;;3.72;0.80;;;;;;;11.66;56.05;101030.34;10445053;28;20527;-79
2023/05/30 03:21:23;;;;;;;1.63;0.60;;;;;;;11.72;55.84;101023.72;10445120;28;20037;-84
2023/05/30 03:26:27;;;;;;;2.92;0.60;;;;;;;11.81;56.71;101025.94;10446342;28;20037;-81
2023/05/30 03:31:30;;;;;;;1.75;0.50;;;;;;;11.89;57.43;101023.44;10481158;28;20532;-81
2023/05/30 03:36:33;;;;;;;1.83;0.57;;;;;;;11.90;57.31;101013.25;10446378;28;20032;-84
2023/05/30 03:41:36;;;;;;;1.20;0.60;;;;;;;11.57;58.34;101026.50;10423941;28;20496;-81
2023/05/30 03:46:38;;;;;;;3.05;0.75;;;;;;;11.85;58.45;101024.28;10452199;28;20041;-83
2023/05/30 03:51:40;;;;;;;1.60;0.68;;;;;;;11.83;58.47;101020.97;10438159;28;20041;-80
2023/05/30 03:56:43;;;;;;;1.17;0.55;;;;;;;11.50;59.31;101016.91;10453630;28;20047;-83
2023/05/30 04:01:45;;;;;;;2.10;0.73;;;;;;;11.76;59.91;101019.31;10454977;28;20048;-82
2023/05/30 04:06:48;;;;;;;3.17;0.80;;;;;;;11.96;59.38;101021.19;10452157;28;20029;-83
2023/05/30 04:11:52;;;;;;;1.33;0.70;;;;;;;12.10;59.39;101020.59;10455254;28;20044;-83
2023/05/30 04:16:54;;;;;;;2.65;0.70;;;;;;;12.21;59.01;101024.94;10487762;28;20021;-81
2023/05/30 04:21:59;;;;;;;4.00;0.75;;;;;;;12.17;60.18;101016.44;10455014;28;20123;-83
2023/05/30 04:27:03;;;;;;;1.95;0.60;;;;;;;12.48;59.35;101010.75;10450173;28;20033;-80
2023/05/30 04:32:06;;;;;;;3.08;0.90;;;;;;;12.46;59.95;101007.47;10456380;28;20057;-80
2023/05/30 04:37:10;;;;;;;2.53;0.70;;;;;;;12.57;59.74;101003.56;10444502;28;20056;-80
2023/05/30 04:42:14;;;;;;;0.60;0.57;;;;;;;12.68;59.95;101005.13;10452693;28;20388;-80
2023/05/30 04:47:17;;;;;;;2.17;0.55;;;;;;;12.77;59.97;101002.56;10459589;28;20466;-81
2023/05/30 04:52:20;;;;;;;0.55;0.50;;;;;;;12.73;60.62;100996.81;10450960;28;20028;-81
2023/05/30 04:57:22;;;;;;;2.85;0.80;;;;;;;12.91;59.85;100998.88;10473233;28;20049;-80
2023/05/30 05:02:28;;;;;;;3.88;0.70;;;;;;;12.88;60.53;100996.72;10412930;28;20071;-80
2023/05/30 05:07:31;;;;;;;1.95;0.60;;;;;;;12.96;61.13;100998.84;10455804;28;20041;-81
2023/05/30 05:12:33;;;;;;;2.55;0.73;;;;;;;13.31;61.08;101005.16;10443286;28;20032;-80
2023/05/30 05:17:39;;;;;;;4.40;0.70;;;;;;;13.61;60.71;101009.56;10450249;28;20048;-81
2023/05/30 05:22:41;;;;;;;1.35;0.70;;;;;;;13.75;60.00;100998.66;10461358;28;20040;-81
2023/05/30 05:27:43;;;;;;;3.58;1.08;;;;;;;13.84;59.28;101005.16;10467282;28;20033;-79
2023/05/30 05:32:46;;;;;;;4.45;0.77;;;;;;;14.37;57.96;101010.53;10461196;28;20052;-80
2023/05/30 05:37:48;;;;;;;4.10;0.98;;;;;;;14.72;55.95;101014.75;10502831;28;20366;-81
2023/05/30 05:42:50;;;;;;;2.30;0.70;;;;;;;14.71;54.88;101019.44;10464173;28;20086;-80
2023/05/30 05:47:54;;;;;;;2.28;0.70;;;;;;;14.59;55.24;101027.38;10439891;28;20050;-83
2023/05/30 05:52:56;;;;;;;1.75;0.80;;;;;;;14.33;55.86;101035.16;10407316;28;20038;-81
2023/05/30 05:57:59;;;;;;;1.73;0.75;;;;;;;13.79;56.89;101041.06;10416158;28;20037;-81
2023/05/30 06:03:02;;;;;;;2.80;0.68;;;;;;;13.50;56.70;101054.88;10447261;28;20385;-83
2023/05/30 06:08:05;;;;;;;1.65;0.85;;;;;;;13.36;56.65;101059.41;10435907;28;20045;-83
2023/05/30 06:13:07;;;;;;;1.42;0.70;;;;;;;13.12;58.00;101064.84;10446796;28;20492;-83
2023/05/30 06:18:10;;;;;;;3.75;0.90;;;;;;;12.83;59.05;101067.53;10448022;28;20139;-80
2023/05/30 06:23:12;;;;;;;1.27;0.60;;;;;;;12.71;59.36;101076.16;10411586;28;20041;-80
2023/05/30 06:28:14;;;;;;;3.65;0.70;;;;;;;12.96;58.08;101072.38;10429620;28;20045;-83
2023/05/30 06:33:17;;;;;;;1.27;0.63;;;;;;;13.25;57.57;101080.75;10446732;28;20393;-80
2023/05/30 06:38:20;;;;;;;1.10;0.70;;;;;;;13.33;56.76;101077.34;10446405;28;20048;-81
2023/05/30 06:43:22;;;;;;;1.40;0.70;;;;;;;13.39;55.92;101094.69;10440430;28;20385;-80
2023/05/30 06:48:24;;;;;;;1.20;0.50;;;;;;;13.68;54.76;101095.50;10447315;28;20033;-82
2023/05/30 06:53:26;;;;;;;1.75;1.00;;;;;;;14.33;53.76;101097.84;10438457;28;20045;-78
2023/05/30 06:58:29;;;;;;;1.92;0.70;;;;;;;15.31;51.92;101088.72;10428441;28;20041;-80
2023/05/30 07:03:31;;;;;;;1.83;0.52;;;;;;;16.62;47.15;101077.34;10435866;28;20044;-83
2023/05/30 07:08:34;;;;;;;1.17;0.82;;;;;;;16.95;44.15;101070.50;10433796;28;20038;-82
2023/05/30 07:13:36;;;;;;;3.15;0.85;;;;;;;16.67;43.64;101080.06;10434863;28;20041;-84
2023/05/30 07:18:38;;;;;;;2.30;0.50;;;;;;;16.79;42.20;101083.91;10444714;28;20029;-81
2023/05/30 07:23:40;;;;;;;2.40;0.80;;;;;;;17.22;40.17;101090.97;10410202;28;20316;-84
2023/05/30 07:28:42;;;;;;;2.72;0.70;;;;;;;17.96;38.77;101099.59;10446760;28;20033;-81
2023/05/30 07:33:44;;;;;;;2.53;0.70;;;;;;;18.05;36.84;101098.53;10436584;28;20389;-82
2023/05/30 07:38:48;;;;;;;1.65;0.70;;;;;;;17.41;36.13;101102.69;10442780;28;20037;-83
2023/05/30 07:43:50;;;;;;;1.20;0.70;;;;;;;18.22;36.94;101097.78;10488567;28;20044;-84
2023/05/30 07:48:53;;;;;;;2.22;0.82;;;;;;;18.07;36.57;101104.56;10486664;28;20045;-82
2023/05/30 07:53:55;;;;;;;2.20;0.65;;;;;;;18.03;36.70;101102.72;10463458;28;20040;-83
2023/05/30 07:58:57;;;;;;;1.10;0.60;;;;;;;18.78;34.46;101098.09;10457220;28;20048;-81
2023/05/30 08:03:59;;;;;;;3.45;0.90;;;;;;;18.95;34.25;101100.88;10423605;28;20056;-82
2023/05/30 08:09:02;;;;;;;2.58;0.80;;;;;;;18.87;32.30;101101.69;10404471;28;20500;-83
2023/05/30 08:14:04;;;;;;;4.20;1.30;;;;;;;18.90;31.70;101107.41;10404237;28;20034;-82
2023/05/30 08:19:06;;;;;;;1.30;0.70;;;;;;;19.73;31.08;101106.41;10403579;28;20045;-84
2023/05/30 08:24:11;;;;;;;1.75;0.80;;;;;;;19.69;31.34;101103.47;10444499;28;20038;-83
2023/05/30 08:29:13;;;;;;;2.67;0.85;;;;;;;19.36;31.62;101119.84;10444503;28;20037;-85
2023/05/30 08:34:16;;;;;;;1.95;0.80;;;;;;;19.72;29.90;101115.91;10439863;28;20052;-83
2023/05/30 08:39:18;;;;;;;0.85;0.70;;;;;;;19.58;29.22;101114.13;10448099;28;20042;-85
2023/05/30 08:44:21;;;;;;;1.50;0.90;;;;;;;19.85;28.23;101107.34;10418189;28;20044;-84
2023/05/30 08:49:24;;;;;;;1.05;0.73;;;;;;;19.46;28.69;101125.09;10410962;28;20038;-82
2023/05/30 08:54:40;;;;;;;3.40;0.98;;;;;;;19.27;29.63;101121.84;10420452;28;20037;-84
2023/05/30 08:59:43;;;;;;;1.60;0.80;;;;;;;19.38;30.69;101123.13;10459028;28;20032;-83
2023/05/30 09:04:46;;;;;;;3.33;1.02;;;;;;;19.69;30.77;101124.91;10423797;28;20037;-83
2023/05/30 09:09:50;;;;;;;1.23;0.80;;;;;;;19.12;32.12;101130.69;10432954;28;20466;-82
2023/05/30 09:14:52;;;;;;;1.80;0.95;;;;;;;18.85;33.55;101126.22;10450422;28;20038;-83
2023/05/30 09:19:56;;;;;;;4.43;0.93;;;;;;;18.49;35.19;101123.66;10436384;28;20037;-84
2023/05/30 09:25:00;;;;;;;2.75;0.80;;;;;;;18.26;35.19;101120.16;10444507;28;20038;-81
2023/05/30 09:30:10;;;;;;;1.50;0.70;;;;;;;17.62;35.65;101117.69;10442774;28;20033;-84
2023/05/30 09:35:12;;;;;;;4.43;0.80;;;;;;;16.80;37.33;101132.66;10398553;28;20046;-83
2023/05/30 09:40:15;;;;;;;1.33;0.75;;;;;;;16.19;36.74;101125.59;10406324;28;20485;-82
2023/05/30 09:45:23;;;;;;;2.75;1.15;;;;;;;15.96;37.93;101129.34;10405944;28;20045;-81
2023/05/30 09:50:26;;;;;;;2.05;0.63;;;;;;;15.77;36.15;101118.34;10407577;28;20492;-81
2023/05/30 09:55:28;;;;;;;2.92;1.10;;;;;;;15.63;37.83;101118.34;10404214;28;20475;-84
2023/05/30 10:00:31;;;;;;;1.25;0.65;;;;;;;15.90;38.23;101123.09;10408086;28;20045;-83
2023/05/30 10:05:36;;;;;;;6.22;1.33;;;;;;;15.98;38.63;101119.66;10407878;28;20034;-83
2023/05/30 10:10:40;;;;;;;2.25;0.80;;;;;;;16.09;38.91;101114.72;10407824;28;20127;-83
2023/05/30 10:15:42;;;;;;;10.70;1.20;;;;;;;16.19;39.36;101124.78;10396123;28;20053;-83
2023/05/30 10:20:45;;;;;;;1.75;0.70;;;;;;;16.05;38.33;101116.47;10415465;28;20343;-82
2023/05/30 10:25:51;;;;;;;1.90;1.10;;;;;;;15.86;38.74;101110.19;10381482;28;20036;-83
2023/05/30 10:30:53;;;;;;;2.55;1.17;;;;;;;15.83;38.84;101116.34;10395212;28;20132;-82
2023/05/30 10:35:55;;;;;;;2.35;1.15;;;;;;;16.00;38.94;101122.09;10411248;28;20052;-83
2023/05/30 10:41:05;;;;;;;1.67;1.05;;;;;;;15.96;38.56;101132.94;10445708;28;20029;-82
2023/05/30 10:46:13;;;;;;;3.25;0.85;;;;;;;15.79;39.14;101131.88;10425016;28;20049;-84
2023/05/30 10:51:16;;;;;;;1.45;0.93;;;;;;;15.56;40.15;101134.47;10423210;28;20029;-85
2023/05/30 10:56:35;;;;;;;5.15;0.90;;;;;;;15.71;39.97;101144.50;10410145;28;20520;-83
2023/05/30 11:01:38;;;;;;;3.42;0.95;;;;;;;15.69;40.10;101141.22;10444223;28;20038;-83
2023/05/30 11:06:45;;;;;;;2.95;1.00;;;;;;;15.70;39.83;101142.03;10445479;28;20045;-82
2023/05/30 11:11:55;;;;;;;2.53;1.00;;;;;;;15.69;39.77;101143.97;10444406;28;20034;-80
2023/05/30 11:17:03;;;;;;;3.03;0.90;;;;;;;15.78;40.40;101138.56;10423467;28;20497;-82
2023/05/30 11:22:17;;;;;;;2.63;0.77;;;;;;;15.69;40.96;101143.97;10437700;28;20033;-83
2023/05/30 11:27:20;;;;;;;3.65;0.90;;;;;;;15.67;41.33;101135.16;10433004;28;20477;-80
2023/05/30 11:32:23;;;;;;;2.22;0.98;;;;;;;15.58;41.75;101134.97;10444553;28;20046;-79
2023/05/30 11:37:25;;;;;;;3.40;0.95;;;;;;;15.52;42.54;101136.19;10427342;28;20045;-83
2023/05/30 11:42:29;;;;;;;4.10;1.15;;;;;;;15.46;43.07;101139.38;10444773;28;20044;-81
2023/05/30 11:47:32;;;;;;;1.35;0.85;;;;;;;15.47;42.70;101124.41;10443219;28;20037;-82
2023/05/30 11:52:38;;;;;;;2.08;0.88;;;;;;;15.63;42.14;101137.72;10443210;28;20380;-82
2023/05/30 11:57:41;;;;;;;2.40;0.70;;;;;;;15.55;42.62;101135.59;10426923;28;20049;-83
2023/05/30 12:02:43;;;;;;;3.17;1.05;;;;;;;15.57;44.18;101133.34;10445022;28;20037;-81
2023/05/30 12:07:50;;;;;;;2.25;0.80;;;;;;;15.65;43.30;101131.88;10410454;28;20064;-81
2023/05/30 12:12:52;;;;;;;1.40;0.75;;;;;;;15.67;42.84;101124.09;10428412;28;20385;-81
2023/05/30 12:17:55;;;;;;;4.07;1.00;;;;;;;15.60;44.18;101135.53;10411218;28;20038;-80
2023/05/30 12:23:04;;;;;;;3.38;1.58;;;;;;;15.54;43.09;101141.44;10420286;28;20500;-80
2023/05/30 12:28:06;;;;;;;2.97;0.80;;;;;;;15.41;44.75;101142.19;10419891;28;20045;-81
2023/05/30 12:33:18;;;;;;;2.72;1.02;;;;;;;15.55;44.53;101138.34;10448977;28;20369;-82
2023/05/30 12:52:42;;;;;;;3.55;0.90;;;;;;;15.79;43.62;101149.31;10526537;28;20545;-89
2023/05/30 12:57:46;;;;;;;2.35;1.10;;;;;;;15.58;44.11;101151.56;10469097;28;20048;-86
2023/05/30 13:02:48;;;;;;;3.92;1.20;;;;;;;15.71;45.28;101152.78;10471052;28;20045;-85
2023/05/30 13:07:51;;;;;;;3.83;0.90;;;;;;;15.74;44.67;101143.88;10485847;28;20056;-87
2023/05/30 13:12:56;;;;;;;3.25;1.10;;;;;;;15.74;45.62;101149.41;10430676;28;20476;-87
2023/05/30 13:17:58;;;;;;;1.67;1.02;;;;;;;15.76;45.33;101149.91;10463131;28;20045;-85
2023/05/30 13:23:03;;;;;;;3.78;1.40;;;;;;;15.66;44.67;101150.94;10468899;28;20041;-86
2023/05/30 13:28:05;;;;;;;0.70;0.60;;;;;;;15.85;44.10;101152.81;10464258;28;20065;-88
2023/05/30 13:33:07;;;;;;;1.90;0.90;;;;;;;15.97;44.80;101150.41;10423753;28;20409;-85
2023/05/30 13:38:09;;;;;;;5.43;1.00;;;;;;;16.07;44.99;101164.03;10413561;28;20040;-84
2023/05/30 13:43:12;;;;;;;5.32;1.00;;;;;;;15.74;43.63;101160.47;10387410;28;20044;-89
2023/05/30 13:48:15;;;;;;;3.10;1.02;;;;;;;15.41;44.25;101165.13;10381819;28;20049;-87
2023/05/30 13:53:19;;;;;;;3.97;1.10;;;;;;;15.28;44.64;101177.81;10375322;28;20544;-87
2023/05/30 13:58:22;;;;;;;3.28;1.40;;;;;;;15.25;46.12;101180.31;10391300;28;20053;-85
2023/05/30 14:03:24;;;;;;;2.85;1.30;;;;;;;15.40;46.48;101180.09;10350357;28;20041;-84
2023/05/30 14:08:27;;;;;;;5.07;1.40;;;;;;;15.50;46.31;101192.94;10406272;28;20045;-85
2023/05/30 14:13:31;;;;;;;3.20;1.20;;;;;;;15.61;45.42;101194.44;10335590;28;20050;-83
2023/05/30 14:18:33;;;;;;;1.88;1.08;;;;;;;15.61;45.98;101199.97;10349287;28;20046;-87
2023/05/30 14:23:37;;;;;;;2.30;0.85;;;;;;;15.47;46.18;101197.16;10361592;28;20056;-82
2023/05/30 14:28:41;;;;;;;4.18;1.23;;;;;;;15.37;46.26;101209.16;10393110;28;20132;-84
2023/05/30 14:33:43;;;;;;;3.40;1.73;;;;;;;15.08;47.27;101214.81;10365594;28;20042;-85
2023/05/30 14:38:45;;;;;;;3.40;1.13;;;;;;;15.08;47.87;101219.53;10356038;28;20050;-87
2023/05/30 14:43:48;;;;;;;3.88;1.10;;;;;;;15.05;47.53;101220.94;10339146;28;20049;-86
2023/05/30 14:48:51;;;;;;;2.40;0.90;;;;;;;14.82;47.48;101221.81;10341326;28;20149;-84
2023/05/30 14:53:53;;;;;;;4.38;1.02;;;;;;;15.05;46.94;101231.19;10386277;28;20418;-87
2023/05/30 14:58:55;;;;;;;4.40;1.27;;;;;;;14.95;48.28;101228.56;10375076;28;20046;-86
2023/05/30 15:03:59;;;;;;;2.58;1.20;;;;;;;14.70;48.00;101227.75;10369340;28;20045;-85
2023/05/30 15:09:03;;;;;;;1.85;1.05;;;;;;;14.56;48.90;101237.03;10393717;28;20402;-85
2023/05/30 15:14:05;;;;;;;2.20;1.15;;;;;;;14.44;50.17;101242.97;10382042;28;20057;-83
2023/05/30 15:19:08;;;;;;;2.33;0.88;;;;;;;14.49;50.38;101245.69;10310599;28;20434;-84
2023/05/30 15:24:10;;;;;;;2.30;1.10;;;;;;;14.42;50.94;101243.25;10339821;28;20457;-84
2023/05/30 15:29:13;;;;;;;2.67;0.70;;;;;;;14.22;48.69;101242.59;10349586;28;20414;-84
2023/05/30 15:34:19;;;;;;;2.67;1.08;;;;;;;14.22;49.55;101235.16;10383695;28;20057;-83
2023/05/30 15:39:21;;;;;;;4.45;1.08;;;;;;;14.21;49.87;101236.25;10387459;28;20037;-84
2023/05/30 15:44:24;;;;;;;3.15;0.90;;;;;;;14.18;50.17;101242.38;10379673;28;20049;-84
2023/05/30 15:49:27;;;;;;;5.45;1.35;;;;;;;14.32;50.49;101242.50;10497970;23;20059;-85
2023/05/30 15:54:29;;;;;;;4.40;0.95;;;;;;;14.30;50.58;101242.81;10265076;29;20051;-85
2023/05/30 15:59:31;;;;;;;4.53;1.17;;;;;;;14.33;50.15;101244.16;10287264;29;20039;-85
2023/05/30 16:04:36;;;;;;;4.13;1.00;;;;;;;14.45;50.17;101239.94;10255115;29;20074;-86
2023/05/30 16:09:39;;;;;;;3.17;1.02;;;;;;;14.61;49.54;101237.00;10272616;29;20043;-85
2023/05/30 16:14:41;;;;;;;3.88;1.10;;;;;;;14.47;49.71;101236.88;10265895;28;20046;-85
2023/05/30 16:19:46;;;;;;;2.72;1.20;;;;;;;14.21;51.18;101240.97;10243499;28;20063;-85
2023/05/30 16:24:49;;;;;;;2.60;1.00;;;;;;;14.00;52.12;101249.44;10278237;28;20110;-85
2023/05/30 16:29:52;;;;;;;2.45;1.00;;;;;;;13.95;53.41;101255.00;10232988;29;20043;-86
2023/05/30 16:34:54;;;;;;;4.68;1.13;;;;;;;13.95;53.84;101254.19;10250526;29;20043;-86
2023/05/30 16:39:56;;;;;;;2.85;0.95;;;;;;;13.95;54.47;101263.28;10265193;29;20043;-86
2023/05/30 16:44:59;;;;;;;3.35;1.15;;;;;;;13.97;54.83;101269.31;10266059;29;20049;-87
2023/05/30 16:50:01;;;;;;;2.97;1.00;;;;;;;14.09;54.76;101260.69;10232459;29;20051;-85
2023/05/30 16:55:04;;;;;;;5.03;1.08;;;;;;;14.06;54.66;101266.78;10240491;28;20047;-85
2023/05/30 17:00:08;;;;;;;1.88;1.17;;;;;;;13.85;54.97;101274.38;10249654;29;20039;-85
2023/05/30 17:05:10;;;;;;;2.40;1.30;;;;;;;13.65;55.54;101267.06;10264230;29;20043;-86
2023/05/30 17:10:13;;;;;;;2.53;1.20;;;;;;;13.71;55.41;101276.13;10226113;29;20043;-86
2023/05/30 17:15:15;;;;;;;1.73;1.10;;;;;;;13.60;55.05;101263.53;10210232;29;20050;-86
2023/05/30 17:20:17;;;;;;;1.30;0.90;;;;;;;13.54;55.18;101260.81;10225244;29;20052;-85
2023/05/30 17:25:20;;;;;;;1.58;0.90;;;;;;;13.40;55.07;101254.28;10264023;28;20039;-86
2023/05/30 17:30:23;;;;;;;2.65;0.90;;;;;;;13.37;55.44;101246.59;10228110;29;20066;-85
2023/05/30 17:35:25;;;;;;;2.25;1.10;;;;;;;13.41;55.21;101246.84;10259743;29;20090;-85
2023/05/30 17:40:28;;;;;;;1.50;1.40;;;;;;;13.62;54.90;101250.28;10285916;29;20039;-86
2023/05/30 17:45:31;;;;;;;3.85;1.00;;;;;;;13.99;54.50;101249.72;10257303;29;20047;-86
2023/05/30 17:50:33;;;;;;;2.47;1.00;;;;;;;14.28;54.38;101249.75;10271739;29;20054;-86
2023/05/30 17:55:35;;;;;;;2.30;0.93;;;;;;;14.98;53.15;101250.09;10287924;29;20547;-85
2023/05/30 18:00:39;;;;;;;2.10;0.90;;;;;;;15.02;52.74;101251.97;10269299;29;20043;-85
2023/05/30 18:05:41;;;;;;;4.03;1.00;;;;;;;14.92;52.61;101249.31;10301675;28;20046;-85
2023/05/30 18:10:44;;;;;;;1.83;0.93;;;;;;;14.10;55.00;101248.53;10235488;29;20531;-86
2023/05/30 18:15:46;;;;;;;1.30;0.85;;;;;;;13.70;56.37;101239.44;10235769;29;20519;-91
2023/05/30 18:20:49;;;;;;;2.70;1.13;;;;;;;13.88;56.83;101244.31;10263875;29;20547;-86
2023/05/30 18:25:51;;;;;;;4.93;1.20;;;;;;;14.14;56.43;101246.81;10241190;29;20039;-86
2023/05/30 18:30:53;;;;;;;1.75;0.88;;;;;;;14.22;56.10;101242.59;10222518;28;20526;-86
2023/05/30 18:35:56;;;;;;;2.97;1.02;;;;;;;14.18;56.23;101248.72;10267332;28;20047;-86
2023/05/30 18:40:58;;;;;;;3.75;1.45;;;;;;;14.14;56.26;101250.41;10238185;28;20046;-85
2023/05/30 18:46:00;;;;;;;2.83;1.23;;;;;;;14.11;55.60;101241.91;10270906;28;20043;-85
2023/05/30 18:51:03;;;;;;;3.03;1.20;;;;;;;13.95;56.26;101251.41;10250863;29;20055;-86
2023/05/30 18:56:05;;;;;;;2.15;1.05;;;;;;;14.13;55.51;101243.25;10243770;28;20074;-89
2023/05/30 19:01:07;;;;;;;2.42;1.20;;;;;;;13.99;55.44;101253.31;10264989;28;20039;-88
2023/05/30 19:06:10;;;;;;;1.33;1.00;;;;;;;13.93;55.75;101245.38;10269558;28;20255;-87
2023/05/30 19:11:12;;;;;;;1.90;1.15;;;;;;;14.02;55.45;101260.16;10285645;28;20031;-85
2023/05/30 19:16:14;;;;;;;3.33;1.45;;;;;;;14.02;55.62;101249.13;10242553;29;20504;-86
2023/05/30 19:21:16;;;;;;;1.77;1.15;;;;;;;13.88;56.23;101262.75;10270010;28;20035;-92
2023/05/30 19:26:18;;;;;;;3.40;1.60;;;;;;;14.07;55.95;101262.91;10226440;28;20082;-87
2023/05/30 19:31:23;;;;;;;2.50;1.30;;;;;;;14.14;55.70;101268.91;10267536;28;20125;-89
2023/05/30 19:36:25;;;;;;;4.68;1.30;;;;;;;14.06;55.59;101264.84;10275101;28;20269;-91
2023/05/30 19:41:27;;;;;;;3.22;1.10;;;;;;;13.93;55.88;101273.78;10285703;28;20027;-89
2023/05/30 19:46:30;;;;;;;1.85;1.30;;;;;;;13.42;57.20;101278.81;10311493;28;20047;-89
2023/05/30 19:51:32;;;;;;;2.25;1.30;;;;;;;13.42;57.10;101274.13;10254638;29;20423;-88
2023/05/30 19:56:34;;;;;;;2.20;1.10;;;;;;;13.53;56.33;101261.91;10246452;29;20048;-85
2023/05/30 20:01:36;;;;;;;3.60;1.05;;;;;;;13.50;56.67;101259.72;10251668;28;20054;-87
2023/05/30 20:06:39;;;;;;;2.35;1.00;;;;;;;13.44;56.58;101260.88;10265341;29;20062;-86
2023/05/30 20:11:41;;;;;;;3.35;1.33;;;;;;;13.38;57.41;101264.78;10251854;29;20047;-86
2023/05/30 20:16:43;;;;;;;3.40;1.40;;;;;;;13.26;57.46;101261.53;10255455;29;20053;-85
2023/05/30 20:21:45;;;;;;;2.30;1.40;;;;;;;13.07;58.18;101260.50;10243977;28;20047;-87
2023/05/30 20:26:48;;;;;;;8.00;2.17;;;;;;;13.02;58.36;101253.09;10209853;29;20050;-87
2023/05/30 20:31:50;;;;;;;4.55;2.03;;;;;;;12.74;58.63;101251.00;10233036;29;20050;-87
2023/05/30 20:36:52;;;;;;;5.82;1.63;;;;;;;12.45;59.19;101246.09;10267594;28;20047;-86
2023/05/30 20:41:54;;;;;;;2.33;1.63;;;;;;;12.63;59.15;101248.25;10259627;29;20039;-85
2023/05/30 20:47:00;;;;;;;5.40;1.50;;;;;;;12.86;58.91;101246.81;10250978;29;20050;-86
2023/05/30 20:52:02;;;;;;;3.90;1.48;;;;;;;12.96;58.55;101243.19;10250038;29;20046;-86
2023/05/30 20:57:21;;;;;;;3.35;1.70;;;;;;;12.70;59.46;101231.47;10242168;28;20694;-86
2023/05/30 21:02:23;;;;;;;4.13;1.33;;;;;;;12.77;59.18;101240.22;10269953;28;20041;-95
2023/05/30 21:07:25;;;;;;;2.00;1.35;;;;;;;12.57;59.82;101237.56;10260088;28;20066;-85
2023/05/30 21:12:28;;;;;;;2.13;1.40;;;;;;;12.33;61.00;101235.41;10277219;28;20456;-85
2023/05/30 21:17:30;;;;;;;2.83;1.50;;;;;;;12.30;61.37;101232.38;10274901;28;20051;-84
2023/05/30 21:22:32;;;;;;;2.10;1.40;;;;;;;12.53;60.22;101226.28;10269359;28;20039;-83
2023/05/30 21:27:35;;;;;;;4.45;1.80;;;;;;;12.61;60.00;101230.38;10288854;28;20116;-85
2023/05/30 21:32:37;;;;;;;10.75;1.90;;;;;;;12.46;60.41;101211.97;10256485;29;20034;-84
2023/05/30 21:37:39;;;;;;;2.75;1.77;;;;;;;12.34;60.71;101219.72;10271853;28;20039;-84
2023/05/30 21:42:41;;;;;;;3.08;2.20;;;;;;;12.40;60.98;101220.53;10257043;28;20038;-82
2023/05/30 21:47:43;;;;;;;3.65;1.92;;;;;;;12.37;61.12;101220.00;10242141;28;20396;-84
2023/05/30 21:52:47;;;;;;;4.90;2.30;;;;;;;12.59;62.19;101216.88;10282832;28;20049;-84
2023/05/30 21:57:50;;;;;;;3.22;2.25;;;;;;;12.59;61.85;101210.56;10263677;28;20047;-84
2023/05/30 22:02:52;;;;;;;3.97;2.17;;;;;;;12.56;62.65;101211.13;10291778;28;20039;-84
2023/05/30 22:07:55;;;;;;;3.95;2.58;;;;;;;12.44;62.90;101207.84;10301728;28;20134;-87
2023/05/30 22:12:57;;;;;;;5.97;2.20;;;;;;;12.41;62.78;101209.25;10285453;28;20050;-85
2023/05/30 22:18:00;;;;;;;6.55;1.95;;;;;;;12.44;62.79;101203.16;10261884;28;20102;-85
2023/05/30 22:23:02;;;;;;;2.90;1.90;;;;;;;12.47;62.73;101196.28;10278526;28;20047;-85
2023/05/30 22:28:05;;;;;;;3.25;1.40;;;;;;;12.37;63.55;101189.72;10287822;28;20054;-85
2023/05/30 22:33:08;;;;;;;2.50;1.50;;;;;;;12.53;63.20;101185.00;10286203;28;20126;-84
2023/05/30 22:38:10;;;;;;;2.10;1.30;;;;;;;12.49;62.93;101180.31;10261946;29;20039;-85
2023/05/30 22:43:14;;;;;;;3.00;1.30;;;;;;;12.37;63.38;101175.13;10277526;28;20035;-85
2023/05/30 22:48:17;;;;;;;2.15;1.33;;;;;;;12.45;63.38;101181.97;10269390;28;20050;-84
2023/05/30 22:53:20;;;;;;;4.25;1.30;;;;;;;12.33;62.86;101169.38;10270275;28;20043;-84
2023/05/30 22:58:23;;;;;;;4.35;1.33;;;;;;;12.25;63.51;101175.44;10288024;28;20042;-85
2023/05/30 23:03:25;;;;;;;2.55;1.25;;;;;;;12.44;63.40;101166.56;10257151;28;20043;-85
2023/05/30 23:08:28;;;;;;;1.50;1.30;;;;;;;12.21;63.52;101166.09;10264783;28;20039;-84
2023/05/30 23:13:32;;;;;;;1.95;1.30;;;;;;;12.22;63.80;101158.66;10289748;28;20538;-85
2023/05/30 23:18:35;;;;;;;4.22;1.73;;;;;;;12.14;63.65;101153.72;10293239;28;20046;-85
2023/05/30 23:23:37;;;;;;;3.63;1.70;;;;;;;12.12;63.88;101156.75;10262296;29;20050;-85
2023/05/30 23:28:39;;;;;;;5.28;2.30;;;;;;;12.08;63.77;101147.41;10294630;28;20043;-85